Time;durP1;ratioP1;P1;durP2;ratioP2;P2;SDS_P1;SDS_P2;PMS_P1;PMS_P2;Temp;Humidity;BMP_temperature;BMP_pressure;BME280_temperature;BME280_humidity;BME280_pressure;Samples;Min_cycle;Max_cycle;Signal;HPM_P1;HPM_P2
2022/08/21 00:00:48;;;;;;;9.93;8.10;;;;;;;;;;5036642;28;20108;-68
2022/08/21 00:03:14;;;;;;;9.15;7.63;;;;;;;;;;5036015;28;20017;-68
2022/08/21 00:05:41;;;;;;;10.60;8.85;;;;;;;;;;5036003;28;20082;-67
2022/08/21 00:08:07;;;;;;;11.02;7.65;;;;;;;;;;5036205;28;20014;-67
2022/08/21 00:10:33;;;;;;;10.23;8.45;;;;;;;;;;5036148;28;20052;-68
2022/08/21 00:12:59;;;;;;;11.73;8.52;;;;;;;;;;5035839;28;20110;-68
2022/08/21 00:15:27;;;;;;;11.52;8.13;;;;;;;;;;5036006;28;20036;-68
2022/08/21 00:17:53;;;;;;;11.68;8.48;;;;;;;;;;5036068;28;20056;-68
2022/08/21 00:20:18;;;;;;;9.35;8.18;;;;;;;;;;5035688;28;20038;-68
2022/08/21 00:22:44;;;;;;;9.68;8.07;;;;;;;;;;5017936;28;20057;-67
2022/08/21 00:25:10;;;;;;;9.25;7.90;;;;;;;;;;5035664;28;20037;-67
2022/08/21 00:27:36;;;;;;;11.02;7.75;;;;;;;;;;5035620;28;20026;-67
2022/08/21 00:30:02;;;;;;;11.48;8.13;;;;;;;;;;5017798;28;20037;-67
2022/08/21 00:32:28;;;;;;;10.20;8.00;;;;;;;;;;5035791;28;20100;-67
2022/08/21 00:34:53;;;;;;;9.93;8.90;;;;;;;;;;5035371;28;20148;-67
2022/08/21 00:37:19;;;;;;;10.40;8.88;;;;;;;;;;5035023;28;20017;-67
2022/08/21 00:39:44;;;;;;;11.45;9.30;;;;;;;;;;5035366;28;20426;-67
2022/08/21 00:42:14;;;;;;;10.48;8.70;;;;;;;;;;5035578;28;20017;-68
2022/08/21 00:44:40;;;;;;;13.43;10.13;;;;;;;;;;5035306;28;20056;-68
2022/08/21 00:47:06;;;;;;;10.63;9.25;;;;;;;;;;5017788;28;20474;-68
2022/08/21 00:49:31;;;;;;;9.90;8.93;;;;;;;;;;5035153;28;20025;-68
2022/08/21 00:51:59;;;;;;;9.70;8.05;;;;;;;;;;5035149;28;20516;-68
2022/08/21 00:54:25;;;;;;;10.48;8.38;;;;;;;;;;5035216;28;20037;-68
2022/08/21 00:56:54;;;;;;;11.35;8.48;;;;;;;;;;5035301;28;20105;-68
2022/08/21 00:59:20;;;;;;;11.27;8.30;;;;;;;;;;5017343;28;20030;-68
2022/08/21 01:01:45;;;;;;;11.63;8.13;;;;;;;;;;5034932;28;20452;-68
2022/08/21 01:04:11;;;;;;;11.05;8.95;;;;;;;;;;5034851;28;20017;-68
2022/08/21 01:06:36;;;;;;;10.20;9.05;;;;;;;;;;5035072;28;20353;-68
2022/08/21 01:09:02;;;;;;;9.63;8.50;;;;;;;;;;5035040;28;20032;-68
2022/08/21 01:11:27;;;;;;;11.82;9.30;;;;;;;;;;5034745;28;20357;-68
2022/08/21 01:13:53;;;;;;;12.98;9.27;;;;;;;;;;5034699;28;20021;-68
2022/08/21 01:16:20;;;;;;;10.60;8.63;;;;;;;;;;5034855;28;20032;-68
2022/08/21 01:18:45;;;;;;;10.20;7.85;;;;;;;;;;5034865;28;20448;-68
2022/08/21 01:21:11;;;;;;;9.90;7.97;;;;;;;;;;5034829;28;20017;-68
2022/08/21 01:23:38;;;;;;;9.43;8.18;;;;;;;;;;5035053;28;20454;-67
2022/08/21 01:26:04;;;;;;;10.00;8.02;;;;;;;;;;5034409;28;20021;-67
2022/08/21 01:28:32;;;;;;;10.93;8.30;;;;;;;;;;5016851;28;20033;-67
2022/08/21 01:30:58;;;;;;;11.43;8.18;;;;;;;;;;5016632;28;20391;-67
2022/08/21 01:33:24;;;;;;;10.98;8.32;;;;;;;;;;5034631;28;20041;-68
2022/08/21 01:35:51;;;;;;;11.10;9.10;;;;;;;;;;5034779;28;20091;-67
2022/08/21 01:38:17;;;;;;;12.25;9.10;;;;;;;;;;5034535;28;20364;-67
2022/08/21 01:40:43;;;;;;;12.10;8.90;;;;;;;;;;5034218;28;20474;-67
2022/08/21 01:43:09;;;;;;;12.20;8.90;;;;;;;;;;5034205;28;20025;-67
2022/08/21 01:45:34;;;;;;;12.60;9.13;;;;;;;;;;5016825;28;20079;-67
2022/08/21 01:48:00;;;;;;;9.73;8.70;;;;;;;;;;5033447;28;20037;-67
2022/08/21 01:50:25;;;;;;;10.13;8.18;;;;;;;;;;5034072;28;20067;-67
2022/08/21 01:52:51;;;;;;;10.35;8.15;;;;;;;;;;5016368;28;20183;-67
2022/08/21 01:55:18;;;;;;;10.90;8.40;;;;;;;;;;5034477;28;20134;-67
2022/08/21 01:57:44;;;;;;;10.23;9.13;;;;;;;;;;5033921;28;20036;-67
2022/08/21 02:00:10;;;;;;;10.80;9.63;;;;;;;;;;5034184;28;20026;-67
2022/08/21 02:02:40;;;;;;;11.82;9.57;;;;;;;;;;5034421;28;20033;-67
2022/08/21 02:05:07;;;;;;;14.10;9.63;;;;;;;;;;5033889;28;20014;-67
2022/08/21 02:07:36;;;;;;;13.15;9.07;;;;;;;;;;5034333;28;20045;-67
2022/08/21 02:10:02;;;;;;;12.30;9.30;;;;;;;;;;5034384;28;20056;-67
2022/08/21 02:12:28;;;;;;;11.55;9.73;;;;;;;;;;5033748;28;20476;-67
2022/08/21 02:14:53;;;;;;;11.93;9.68;;;;;;;;;;5034200;28;20106;-67
2022/08/21 02:17:19;;;;;;;14.70;10.25;;;;;;;;;;5033737;28;20080;-67
2022/08/21 02:19:44;;;;;;;11.95;9.75;;;;;;;;;;5033954;28;20143;-67
2022/08/21 02:22:10;;;;;;;12.05;9.32;;;;;;;;;;5034205;28;20087;-67
2022/08/21 02:24:35;;;;;;;15.82;9.88;;;;;;;;;;5033635;28;20031;-67
2022/08/21 02:27:01;;;;;;;17.45;11.23;;;;;;;;;;5033583;28;20026;-67
2022/08/21 02:29:27;;;;;;;17.20;12.40;;;;;;;;;;5033831;28;20451;-67
2022/08/21 02:31:53;;;;;;;17.58;12.60;;;;;;;;;;5033812;28;20041;-67
2022/08/21 02:34:18;;;;;;;18.48;12.18;;;;;;;;;;5034051;28;20022;-67
2022/08/21 02:36:44;;;;;;;16.88;11.82;;;;;;;;;;5034053;28;20368;-67
2022/08/21 02:39:09;;;;;;;16.65;12.50;;;;;;;;;;5033488;28;20381;-69
2022/08/21 02:41:35;;;;;;;19.15;12.38;;;;;;;;;;5016310;28;20025;-68
2022/08/21 02:44:00;;;;;;;21.23;14.75;;;;;;;;;;5033995;28;20069;-68
2022/08/21 02:46:25;;;;;;;23.98;14.02;;;;;;;;;;5033375;28;20030;-67
2022/08/21 02:48:51;;;;;;;21.35;13.77;;;;;;;;;;5015674;28;20490;-67
2022/08/21 02:51:18;;;;;;;20.08;13.05;;;;;;;;;;5015542;28;20132;-67
2022/08/21 02:53:44;;;;;;;19.95;12.93;;;;;;;;;;5033648;28;20061;-68
2022/08/21 02:56:11;;;;;;;19.77;13.30;;;;;;;;;;5033248;28;20123;-67
2022/08/21 02:58:38;;;;;;;18.10;12.77;;;;;;;;;;5033316;28;20113;-67
2022/08/21 03:01:05;;;;;;;16.85;13.10;;;;;;;;;;5036845;28;20084;-68
2022/08/21 03:03:30;;;;;;;19.75;14.30;;;;;;;;;;5037438;28;20052;-67
2022/08/21 03:05:56;;;;;;;20.42;15.38;;;;;;;;;;5037153;28;20103;-67
2022/08/21 03:08:23;;;;;;;19.80;13.95;;;;;;;;;;5019336;28;20032;-67
2022/08/21 03:10:50;;;;;;;19.02;13.98;;;;;;;;;;5037031;28;20029;-67
2022/08/21 03:13:16;;;;;;;21.38;13.55;;;;;;;;;;5036990;28;20060;-68
2022/08/21 03:15:42;;;;;;;18.58;13.05;;;;;;;;;;5037104;28;20095;-68
2022/08/21 03:18:07;;;;;;;22.13;14.07;;;;;;;;;;5037462;28;20026;-67
2022/08/21 03:20:34;;;;;;;20.70;13.13;;;;;;;;;;5036821;28;20112;-67
2022/08/21 03:23:00;;;;;;;21.08;13.18;;;;;;;;;;5037340;28;20031;-67
2022/08/21 03:25:27;;;;;;;16.98;12.60;;;;;;;;;;5036784;28;20514;-67
2022/08/21 03:27:52;;;;;;;14.75;11.82;;;;;;;;;;5036980;28;20021;-67
2022/08/21 03:30:19;;;;;;;17.05;11.10;;;;;;;;;;5036941;28;20030;-67
2022/08/21 03:32:45;;;;;;;13.60;10.73;;;;;;;;;;5037179;28;20021;-67
2022/08/21 03:35:11;;;;;;;15.70;12.05;;;;;;;;;;5036752;28;20037;-67
2022/08/21 03:37:37;;;;;;;14.75;11.68;;;;;;;;;;5036835;28;20040;-67
2022/08/21 03:40:03;;;;;;;16.73;11.48;;;;;;;;;;5036438;28;20482;-67
2022/08/21 03:42:29;;;;;;;17.77;11.50;;;;;;;;;;5036990;28;20044;-67
2022/08/21 03:44:54;;;;;;;14.63;10.20;;;;;;;;;;5036353;28;20108;-67
2022/08/21 03:47:20;;;;;;;15.57;11.05;;;;;;;;;;5036922;28;20031;-67
2022/08/21 03:49:45;;;;;;;13.48;11.07;;;;;;;;;;5036333;28;20108;-68
2022/08/21 03:52:11;;;;;;;12.80;10.85;;;;;;;;;;5035984;28;20089;-68
2022/08/21 03:54:36;;;;;;;16.55;11.50;;;;;;;;;;5036255;28;20119;-68
2022/08/21 03:57:02;;;;;;;13.75;10.82;;;;;;;;;;5036217;28;20020;-68
2022/08/21 03:59:27;;;;;;;15.15;11.05;;;;;;;;;;5036184;28;20032;-67
2022/08/21 04:01:52;;;;;;;20.05;11.68;;;;;;;;;;5035749;28;20101;-67
2022/08/21 04:04:18;;;;;;;17.63;12.43;;;;;;;;;;5036060;28;20463;-67
2022/08/21 04:06:45;;;;;;;15.10;11.93;;;;;;;;;;5036110;28;20052;-68
2022/08/21 04:09:11;;;;;;;17.42;11.90;;;;;;;;;;5035500;28;20031;-68
2022/08/21 04:11:36;;;;;;;20.70;11.38;;;;;;;;;;5034432;28;20471;-69
2022/08/21 04:14:02;;;;;;;14.15;11.20;;;;;;;;;;5035249;28;20025;-69
2022/08/21 04:16:27;;;;;;;19.27;12.20;;;;;;;;;;5025654;28;20029;-68
2022/08/21 04:18:53;;;;;;;16.58;12.02;;;;;;;;;;5035539;28;20025;-68
2022/08/21 04:21:18;;;;;;;15.70;11.73;;;;;;;;;;5017913;28;20071;-68
2022/08/21 04:23:43;;;;;;;17.38;12.82;;;;;;;;;;5035561;28;20029;-69
2022/08/21 04:26:09;;;;;;;20.30;12.43;;;;;;;;;;5035620;28;20033;-69
2022/08/21 04:28:34;;;;;;;17.83;12.90;;;;;;;;;;5035500;28;20044;-72
2022/08/21 04:30:59;;;;;;;19.63;12.93;;;;;;;;;;5035308;28;20029;-71
2022/08/21 04:33:25;;;;;;;19.27;12.20;;;;;;;;;;5035439;28;20023;-71
2022/08/21 04:35:50;;;;;;;20.65;11.70;;;;;;;;;;5035252;28;20448;-71
2022/08/21 04:38:16;;;;;;;18.83;12.23;;;;;;;;;;5035253;28;20029;-71
2022/08/21 04:40:41;;;;;;;17.77;11.90;;;;;;;;;;5035315;28;20109;-71
2022/08/21 04:43:08;;;;;;;15.63;11.80;;;;;;;;;;5035129;28;20083;-71
2022/08/21 04:45:36;;;;;;;17.70;12.10;;;;;;;;;;5035304;28;20063;-70
2022/08/21 04:48:03;;;;;;;17.73;12.48;;;;;;;;;;5017148;28;20517;-70
2022/08/21 04:50:36;;;;;;;15.73;12.73;;;;;;;;;;5035185;28;20021;-70
2022/08/21 04:53:07;;;;;;;18.35;13.77;;;;;;;;;;5034706;28;20045;-70
2022/08/21 04:55:32;;;;;;;19.80;14.60;;;;;;;;;;5034394;28;20033;-70
2022/08/21 04:57:59;;;;;;;20.40;14.07;;;;;;;;;;5033917;28;20379;-70
2022/08/21 05:00:24;;;;;;;18.88;13.98;;;;;;;;;;5016151;28;20029;-70
2022/08/21 05:02:54;;;;;;;17.63;13.45;;;;;;;;;;5033754;28;20028;-71
2022/08/21 05:05:19;;;;;;;16.47;12.90;;;;;;;;;;5033829;28;20029;-70
2022/08/21 05:07:45;;;;;;;18.50;14.13;;;;;;;;;;5033765;28;20543;-70
2022/08/21 05:10:11;;;;;;;19.95;13.82;;;;;;;;;;5033671;28;20045;-70
2022/08/21 05:12:36;;;;;;;19.20;14.02;;;;;;;;;;5033709;28;20018;-70
2022/08/21 05:15:02;;;;;;;18.63;14.32;;;;;;;;;;5033503;28;20079;-70
2022/08/21 05:17:29;;;;;;;17.85;14.35;;;;;;;;;;5015982;28;20021;-70
2022/08/21 05:19:55;;;;;;;16.90;13.05;;;;;;;;;;5033652;28;20071;-70
2022/08/21 05:22:21;;;;;;;15.52;13.32;;;;;;;;;;5015903;28;20021;-70
2022/08/21 05:24:46;;;;;;;18.20;13.93;;;;;;;;;;5033484;28;20033;-70
2022/08/21 05:27:12;;;;;;;16.30;12.55;;;;;;;;;;5033443;28;20021;-70
2022/08/21 05:29:37;;;;;;;14.98;11.38;;;;;;;;;;5033442;28;20712;-70
2022/08/21 05:32:07;;;;;;;16.83;10.38;;;;;;;;;;5033342;28;20017;-71
2022/08/21 05:34:33;;;;;;;14.95;12.00;;;;;;;;;;5033108;28;20052;-71
2022/08/21 05:36:58;;;;;;;16.05;11.25;;;;;;;;;;5033257;28;20460;-71
2022/08/21 05:39:24;;;;;;;16.52;11.10;;;;;;;;;;5015463;28;20496;-71
2022/08/21 05:41:49;;;;;;;13.73;10.75;;;;;;;;;;5033175;28;20017;-71
2022/08/21 05:44:14;;;;;;;17.13;12.10;;;;;;;;;;5033445;28;20033;-71
2022/08/21 05:46:40;;;;;;;15.25;11.35;;;;;;;;;;5033591;28;20061;-71
2022/08/21 05:49:05;;;;;;;14.15;12.60;;;;;;;;;;5033159;28;20118;-71
2022/08/21 05:51:31;;;;;;;17.40;12.32;;;;;;;;;;5032885;28;20052;-71
2022/08/21 05:53:56;;;;;;;16.40;13.15;;;;;;;;;;5033053;28;20025;-71
2022/08/21 05:56:22;;;;;;;15.75;13.18;;;;;;;;;;5033172;28;20029;-71
2022/08/21 05:58:47;;;;;;;19.00;13.82;;;;;;;;;;5033913;28;20031;-70
2022/08/21 06:01:14;;;;;;;17.98;13.00;;;;;;;;;;5033672;28;20114;-70
2022/08/21 06:03:40;;;;;;;19.33;12.90;;;;;;;;;;5034040;28;20368;-70
2022/08/21 06:06:06;;;;;;;18.63;13.50;;;;;;;;;;5033819;28;20028;-70
2022/08/21 06:08:32;;;;;;;18.27;13.20;;;;;;;;;;5016192;28;20033;-70
2022/08/21 06:10:58;;;;;;;16.20;12.48;;;;;;;;;;5033890;28;20100;-68
2022/08/21 06:13:24;;;;;;;20.63;13.43;;;;;;;;;;5015934;28;20117;-68
2022/08/21 06:15:49;;;;;;;17.30;13.20;;;;;;;;;;5033620;28;20536;-68
2022/08/21 06:18:15;;;;;;;21.73;13.57;;;;;;;;;;5032896;28;20033;-68
2022/08/21 06:20:41;;;;;;;19.13;13.30;;;;;;;;;;5031699;28;20455;-68
2022/08/21 06:23:07;;;;;;;18.45;12.90;;;;;;;;;;5013949;28;20113;-68
2022/08/21 06:25:32;;;;;;;19.10;12.27;;;;;;;;;;5031623;28;20104;-68
2022/08/21 06:28:05;;;;;;;20.55;12.65;;;;;;;;;;5031636;28;20056;-68
2022/08/21 06:30:30;;;;;;;16.20;12.80;;;;;;;;;;5031612;28;20118;-68
2022/08/21 06:32:56;;;;;;;14.75;12.32;;;;;;;;;;5031528;28;20106;-68
2022/08/21 06:35:21;;;;;;;15.88;12.43;;;;;;;;;;5016230;28;20072;-68
2022/08/21 06:37:46;;;;;;;16.50;12.98;;;;;;;;;;5036190;28;20071;-68
2022/08/21 06:40:12;;;;;;;17.48;13.32;;;;;;;;;;5036226;28;20551;-68
2022/08/21 06:42:37;;;;;;;15.52;13.00;;;;;;;;;;5036428;28;20029;-68
2022/08/21 06:45:04;;;;;;;19.30;14.13;;;;;;;;;;5018468;28;20557;-68
2022/08/21 06:47:29;;;;;;;17.55;13.60;;;;;;;;;;5018670;28;20022;-68
2022/08/21 06:49:55;;;;;;;16.25;12.52;;;;;;;;;;5036606;28;20037;-68
2022/08/21 06:52:20;;;;;;;19.45;13.30;;;;;;;;;;5037036;28;20104;-68
2022/08/21 06:54:45;;;;;;;17.58;13.73;;;;;;;;;;5037257;28;20025;-68
2022/08/21 06:57:11;;;;;;;17.80;13.27;;;;;;;;;;5037852;28;20032;-68
2022/08/21 06:59:36;;;;;;;16.77;13.05;;;;;;;;;;5037542;28;20025;-68
2022/08/21 07:02:02;;;;;;;16.30;14.15;;;;;;;;;;5037723;28;20075;-68
2022/08/21 07:04:27;;;;;;;15.88;12.80;;;;;;;;;;5037472;28;20438;-68
2022/08/21 07:06:53;;;;;;;18.63;12.75;;;;;;;;;;5037078;28;20021;-68
2022/08/21 07:09:18;;;;;;;16.55;12.50;;;;;;;;;;5037099;28;20029;-68
2022/08/21 07:11:46;;;;;;;14.93;12.52;;;;;;;;;;5037017;28;20526;-68
2022/08/21 07:14:11;;;;;;;18.25;13.57;;;;;;;;;;5036977;28;20053;-68
2022/08/21 07:16:37;;;;;;;18.13;12.73;;;;;;;;;;5019280;28;20538;-68
2022/08/21 07:19:02;;;;;;;13.18;10.65;;;;;;;;;;5037420;28;20041;-68
2022/08/21 07:21:27;;;;;;;13.40;11.93;;;;;;;;;;5036869;28;20021;-68
2022/08/21 07:23:53;;;;;;;14.65;12.88;;;;;;;;;;5037070;28;20022;-68
2022/08/21 07:26:20;;;;;;;18.00;12.77;;;;;;;;;;5036679;28;20022;-68
2022/08/21 07:28:46;;;;;;;17.92;12.68;;;;;;;;;;5019365;28;20120;-68
2022/08/21 07:31:13;;;;;;;14.23;12.63;;;;;;;;;;5036634;28;20096;-68
2022/08/21 07:33:39;;;;;;;13.95;11.73;;;;;;;;;;5019047;28;20034;-68
2022/08/21 07:36:05;;;;;;;18.67;11.75;;;;;;;;;;5018824;28;20075;-68
2022/08/21 07:38:30;;;;;;;14.57;10.98;;;;;;;;;;5036842;28;20065;-68
2022/08/21 07:40:58;;;;;;;15.70;12.10;;;;;;;;;;5018771;28;20060;-68
2022/08/21 07:43:24;;;;;;;17.25;13.20;;;;;;;;;;5019092;28;20080;-68
2022/08/21 07:45:49;;;;;;;15.75;12.93;;;;;;;;;;5018736;28;20021;-68
2022/08/21 07:48:15;;;;;;;16.50;13.45;;;;;;;;;;5036664;28;20060;-68
2022/08/21 07:50:41;;;;;;;18.10;14.90;;;;;;;;;;5036303;28;20509;-68
2022/08/21 07:53:07;;;;;;;17.45;15.20;;;;;;;;;;5018458;28;20042;-68
2022/08/21 07:55:32;;;;;;;23.52;18.23;;;;;;;;;;5018826;28;20040;-68
2022/08/21 07:57:58;;;;;;;25.58;19.15;;;;;;;;;;5036449;28;20349;-68
2022/08/21 08:00:24;;;;;;;25.13;20.42;;;;;;;;;;5036422;28;20057;-68
2022/08/21 08:02:50;;;;;;;30.58;21.25;;;;;;;;;;5036404;28;20044;-68
2022/08/21 08:05:17;;;;;;;26.33;20.20;;;;;;;;;;5035946;28;20551;-68
2022/08/21 08:07:43;;;;;;;29.50;21.00;;;;;;;;;;5036002;28;20448;-68
2022/08/21 08:10:09;;;;;;;28.67;21.67;;;;;;;;;;5035946;28;20032;-68
2022/08/21 08:12:35;;;;;;;28.77;20.00;;;;;;;;;;5036211;28;20052;-68
2022/08/21 08:15:01;;;;;;;23.42;19.70;;;;;;;;;;5036090;28;20033;-68
2022/08/21 08:17:26;;;;;;;26.80;20.65;;;;;;;;;;5035843;28;20028;-68
2022/08/21 08:19:52;;;;;;;27.30;21.27;;;;;;;;;;5036070;28;20074;-68
2022/08/21 08:22:20;;;;;;;27.60;20.30;;;;;;;;;;5036017;28;20063;-68
2022/08/21 08:24:46;;;;;;;29.13;20.40;;;;;;;;;;5017933;28;20035;-68
2022/08/21 08:27:11;;;;;;;25.58;20.08;;;;;;;;;;5035503;28;20026;-68
2022/08/21 08:29:36;;;;;;;25.20;19.23;;;;;;;;;;5018242;28;20072;-68
2022/08/21 08:32:02;;;;;;;25.40;19.67;;;;;;;;;;5017801;28;20022;-68
2022/08/21 08:34:28;;;;;;;29.88;19.52;;;;;;;;;;5035314;28;20061;-68
2022/08/21 08:36:53;;;;;;;29.13;19.20;;;;;;;;;;5017755;28;20140;-68
2022/08/21 08:39:19;;;;;;;18.90;11.90;;;;;;;;;;5017788;28;20112;-68
2022/08/21 08:41:47;;;;;;;13.05;10.80;;;;;;;;;;5035630;28;20018;-68
2022/08/21 08:44:12;;;;;;;14.30;10.73;;;;;;;;;;5035331;28;20480;-68
2022/08/21 08:46:42;;;;;;;9.98;8.70;;;;;;;;;;5035284;28;20060;-68
2022/08/21 08:49:20;;;;;;;11.98;8.57;;;;;;;;;;5017745;28;20460;-68
2022/08/21 08:51:55;;;;;;;10.32;6.80;;;;;;;;;;5017267;28;20053;-68
2022/08/21 08:54:48;;;;;;;9.93;7.15;;;;;;;;;;5035586;28;20033;-68
2022/08/21 08:57:16;;;;;;;14.35;7.30;;;;;;;;;;5031031;28;20107;-68
2022/08/21 08:59:47;;;;;;;8.35;6.80;;;;;;;;;;5035005;28;20022;-68
2022/08/21 09:02:13;;;;;;;10.63;6.93;;;;;;;;;;5017182;28;20051;-68
2022/08/21 09:04:39;;;;;;;6.45;5.57;;;;;;;;;;5034983;28;20013;-68
2022/08/21 09:07:12;;;;;;;7.75;5.82;;;;;;;;;;5034889;28;20056;-68
2022/08/21 09:09:40;;;;;;;7.72;5.28;;;;;;;;;;5034830;28;20108;-68
2022/08/21 09:12:11;;;;;;;8.52;4.53;;;;;;;;;;5035043;28;20100;-68
2022/08/21 09:14:43;;;;;;;7.57;4.78;;;;;;;;;;5034937;28;20048;-68
2022/08/21 09:17:16;;;;;;;5.18;4.65;;;;;;;;;;5035246;28;20026;-68
2022/08/21 09:19:59;;;;;;;5.00;4.55;;;;;;;;;;5034940;28;20036;-68
2022/08/21 09:22:43;;;;;;;5.65;4.47;;;;;;;;;;5034836;28;20049;-68
2022/08/21 09:25:22;;;;;;;5.97;5.40;;;;;;;;;;5034815;28;20061;-68
2022/08/21 09:27:48;;;;;;;7.13;5.53;;;;;;;;;;5035310;28;20372;-68
2022/08/21 09:30:14;;;;;;;5.75;5.25;;;;;;;;;;5034461;28;20036;-68
2022/08/21 09:32:41;;;;;;;8.00;5.20;;;;;;;;;;5034403;28;20029;-68
2022/08/21 09:35:06;;;;;;;9.02;5.88;;;;;;;;;;5034852;28;20055;-68
2022/08/21 09:37:34;;;;;;;7.90;5.82;;;;;;;;;;5034883;28;20030;-68
2022/08/21 09:39:59;;;;;;;8.00;6.13;;;;;;;;;;5034586;28;20037;-68
2022/08/21 09:42:31;;;;;;;8.60;6.60;;;;;;;;;;5035200;28;20449;-68
2022/08/21 09:45:09;;;;;;;8.35;6.20;;;;;;;;;;5034051;28;20033;-68
2022/08/21 09:47:35;;;;;;;6.78;5.97;;;;;;;;;;5034292;28;20029;-68
2022/08/21 09:50:08;;;;;;;7.55;6.70;;;;;;;;;;5034088;28;20052;-68
2022/08/21 09:52:34;;;;;;;6.05;5.45;;;;;;;;;;5034053;28;20078;-68
2022/08/21 09:54:59;;;;;;;8.30;6.32;;;;;;;;;;5034207;28;20467;-68
2022/08/21 09:57:39;;;;;;;9.45;6.15;;;;;;;;;;5033995;28;20047;-68
2022/08/21 10:00:33;;;;;;;9.33;5.97;;;;;;;;;;5034269;28;20460;-68
2022/08/21 10:03:19;;;;;;;7.05;6.35;;;;;;;;;;5013010;28;20236;-68
2022/08/21 10:05:56;;;;;;;6.53;5.93;;;;;;;;;;4999874;28;20036;-68
2022/08/21 10:08:22;;;;;;;8.35;5.90;;;;;;;;;;5033719;28;20037;-68
2022/08/21 10:10:51;;;;;;;7.35;6.32;;;;;;;;;;5033609;28;20044;-68
2022/08/21 10:13:32;;;;;;;7.30;6.18;;;;;;;;;;5034000;28;20360;-68
2022/08/21 10:16:16;;;;;;;5.85;5.35;;;;;;;;;;5033953;28;20455;-68
2022/08/21 10:18:44;;;;;;;6.53;5.93;;;;;;;;;;5016375;28;20036;-68
2022/08/21 10:21:27;;;;;;;7.07;6.38;;;;;;;;;;5015933;28;20361;-68
2022/08/21 10:23:58;;;;;;;8.35;7.25;;;;;;;;;;5016638;28;20037;-68
2022/08/21 10:26:36;;;;;;;9.52;7.25;;;;;;;;;;5033904;28;20037;-68
2022/08/21 10:29:22;;;;;;;7.88;5.82;;;;;;;;;;5016179;28;20442;-68
2022/08/21 10:32:03;;;;;;;6.88;5.78;;;;;;;;;;5033442;28;20064;-68
2022/08/21 10:34:28;;;;;;;6.00;5.50;;;;;;;;;;5016411;28;20033;-68
2022/08/21 10:37:01;;;;;;;5.88;5.30;;;;;;;;;;5015805;28;20023;-68
2022/08/21 10:39:34;;;;;;;5.90;4.90;;;;;;;;;;5016159;28;20456;-68
2022/08/21 10:42:00;;;;;;;6.68;5.10;;;;;;;;;;5033629;28;20030;-68
2022/08/21 10:44:48;;;;;;;5.90;5.20;;;;;;;;;;5033722;28;20049;-68
2022/08/21 10:47:14;;;;;;;5.57;4.32;;;;;;;;;;5002919;28;20065;-68
2022/08/21 10:49:42;;;;;;;4.13;3.72;;;;;;;;;;5033414;28;20452;-68
2022/08/21 10:52:07;;;;;;;5.50;4.97;;;;;;;;;;5033210;28;20042;-68
2022/08/21 10:54:37;;;;;;;5.43;5.03;;;;;;;;;;5033571;28;20030;-68
2022/08/21 10:57:07;;;;;;;4.70;4.35;;;;;;;;;;5033878;28;20109;-68
2022/08/21 10:59:41;;;;;;;7.07;5.43;;;;;;;;;;4999305;28;20057;-68
2022/08/21 11:02:13;;;;;;;5.45;4.95;;;;;;;;;;5016060;28;20464;-68
2022/08/21 11:04:38;;;;;;;5.43;4.93;;;;;;;;;;5033568;28;20026;-68
2022/08/21 11:07:14;;;;;;;7.55;6.82;;;;;;;;;;5033575;28;20024;-68
2022/08/21 11:09:43;;;;;;;5.55;5.03;;;;;;;;;;5033490;28;20037;-68
2022/08/21 11:12:23;;;;;;;4.95;4.53;;;;;;;;;;5015570;28;20026;-68
2022/08/21 11:15:04;;;;;;;4.68;4.38;;;;;;;;;;5033374;28;20030;-68
2022/08/21 11:17:32;;;;;;;6.72;5.97;;;;;;;;;;5033413;28;20033;-68
2022/08/21 11:20:03;;;;;;;6.80;5.78;;;;;;;;;;4999317;28;20387;-68
2022/08/21 11:22:34;;;;;;;5.03;4.60;;;;;;;;;;5036884;28;20028;-68
2022/08/21 11:25:18;;;;;;;4.88;4.47;;;;;;;;;;5037106;28;20463;-68
2022/08/21 11:27:47;;;;;;;4.50;4.03;;;;;;;;;;5037047;28;20029;-68
2022/08/21 11:30:13;;;;;;;4.63;4.32;;;;;;;;;;5036602;28;20071;-68
2022/08/21 11:32:57;;;;;;;4.57;4.18;;;;;;;;;;5019096;28;20037;-68
2022/08/21 11:35:32;;;;;;;6.85;4.78;;;;;;;;;;5036852;28;20033;-68
2022/08/21 11:37:58;;;;;;;6.05;5.55;;;;;;;;;;5018962;28;20456;-68
2022/08/21 11:40:26;;;;;;;4.90;4.50;;;;;;;;;;5019187;28;20020;-68
2022/08/21 11:42:51;;;;;;;7.53;5.70;;;;;;;;;;5036501;28;20049;-68
2022/08/21 11:45:35;;;;;;;7.03;5.57;;;;;;;;;;5036486;28;20061;-68
2022/08/21 11:48:19;;;;;;;7.40;5.60;;;;;;;;;;5036708;28;20092;-68
2022/08/21 11:50:45;;;;;;;6.53;5.88;;;;;;;;;;5036637;28;20029;-68
2022/08/21 11:53:24;;;;;;;9.52;6.25;;;;;;;;;;5036192;28;20056;-68
2022/08/21 11:56:15;;;;;;;7.70;6.50;;;;;;;;;;5036515;28;20036;-68
2022/08/21 11:58:43;;;;;;;6.43;5.90;;;;;;;;;;5031407;28;20041;-68
2022/08/21 12:01:11;;;;;;;9.00;6.13;;;;;;;;;;5036466;28;20108;-68
2022/08/21 12:03:40;;;;;;;8.05;6.10;;;;;;;;;;5036384;28;20026;-68
2022/08/21 12:06:08;;;;;;;10.80;7.97;;;;;;;;;;5036369;28;20030;-68
2022/08/21 12:08:34;;;;;;;8.13;7.32;;;;;;;;;;5019392;28;20036;-68
2022/08/21 12:11:08;;;;;;;8.70;7.90;;;;;;;;;;5018594;28;20033;-68
2022/08/21 12:13:36;;;;;;;8.90;8.15;;;;;;;;;;5018181;28;20022;-68
2022/08/21 12:16:09;;;;;;;8.35;7.47;;;;;;;;;;5018060;28;20031;-68
2022/08/21 12:18:34;;;;;;;7.38;6.68;;;;;;;;;;5035837;28;20029;-68
2022/08/21 12:21:02;;;;;;;9.32;7.45;;;;;;;;;;5035792;28;20044;-68
2022/08/21 12:23:29;;;;;;;8.15;7.35;;;;;;;;;;5036003;28;20079;-68
2022/08/21 12:26:17;;;;;;;9.05;7.53;;;;;;;;;;5035683;28;20033;-68
2022/08/21 12:28:42;;;;;;;9.85;7.88;;;;;;;;;;5018528;28;20065;-68
2022/08/21 12:31:21;;;;;;;9.07;7.45;;;;;;;;;;5035899;28;20083;-68
2022/08/21 12:34:01;;;;;;;10.75;8.00;;;;;;;;;;5034906;28;20041;-70
2022/08/21 12:36:37;;;;;;;9.32;8.40;;;;;;;;;;5036020;28;20033;-70
2022/08/21 12:39:07;;;;;;;13.07;8.48;;;;;;;;;;5036498;28;20095;-70
2022/08/21 12:41:38;;;;;;;13.35;8.20;;;;;;;;;;5035460;28;20022;-70
2022/08/21 12:44:24;;;;;;;9.23;8.05;;;;;;;;;;5035385;28;20030;-70
2022/08/21 12:47:02;;;;;;;16.00;11.40;;;;;;;;;;5035831;28;20456;-70
2022/08/21 12:49:30;;;;;;;9.98;8.73;;;;;;;;;;5035417;28;20033;-70
2022/08/21 12:52:11;;;;;;;10.82;7.90;;;;;;;;;;5034983;28;20052;-70
2022/08/21 12:54:42;;;;;;;13.82;7.78;;;;;;;;;;5035383;28;20047;-70
2022/08/21 12:57:08;;;;;;;12.43;8.25;;;;;;;;;;5035350;28;20026;-70
2022/08/21 12:59:39;;;;;;;12.98;8.05;;;;;;;;;;5035303;28;20093;-70
2022/08/21 13:02:18;;;;;;;11.43;8.38;;;;;;;;;;5035150;28;20034;-70
2022/08/21 13:04:44;;;;;;;10.23;8.50;;;;;;;;;;5035215;28;20033;-70
2022/08/21 13:07:12;;;;;;;11.50;7.97;;;;;;;;;;5034924;28;20017;-70
2022/08/21 13:09:46;;;;;;;10.20;7.47;;;;;;;;;;5034735;28;20030;-70
2022/08/21 13:12:12;;;;;;;7.28;6.65;;;;;;;;;;5035086;28;20034;-70
2022/08/21 13:14:39;;;;;;;6.90;6.18;;;;;;;;;;5034618;28;20021;-70
2022/08/21 13:17:06;;;;;;;6.47;5.88;;;;;;;;;;5035017;28;20022;-70
2022/08/21 13:19:32;;;;;;;8.27;5.72;;;;;;;;;;5034876;28;20021;-70
2022/08/21 13:21:58;;;;;;;7.25;5.68;;;;;;;;;;5016950;28;20025;-70
2022/08/21 13:24:28;;;;;;;6.03;4.90;;;;;;;;;;5034863;28;20041;-70
2022/08/21 13:26:54;;;;;;;5.25;4.85;;;;;;;;;;5034807;28;20452;-70
2022/08/21 13:29:21;;;;;;;4.78;4.47;;;;;;;;;;5034701;28;20021;-70
2022/08/21 13:31:48;;;;;;;5.07;4.68;;;;;;;;;;5034717;28;20029;-70
2022/08/21 13:34:14;;;;;;;5.43;4.93;;;;;;;;;;5034986;28;20104;-70
2022/08/21 13:36:41;;;;;;;5.10;4.78;;;;;;;;;;5034295;28;20041;-70
2022/08/21 13:39:07;;;;;;;4.53;4.22;;;;;;;;;;5016725;28;20024;-70
2022/08/21 13:41:34;;;;;;;5.78;5.28;;;;;;;;;;5034277;28;20032;-71
2022/08/21 13:44:02;;;;;;;5.68;5.18;;;;;;;;;;5034195;28;20025;-70
2022/08/21 13:46:30;;;;;;;5.75;5.30;;;;;;;;;;5016263;28;20052;-70
2022/08/21 13:48:56;;;;;;;5.85;5.22;;;;;;;;;;5034435;28;20018;-70
2022/08/21 13:51:22;;;;;;;5.93;5.53;;;;;;;;;;5034137;28;20056;-70
2022/08/21 13:53:53;;;;;;;7.60;6.07;;;;;;;;;;5034369;28;20025;-70
2022/08/21 13:56:29;;;;;;;7.15;6.55;;;;;;;;;;5016723;28;20029;-70
2022/08/21 13:58:56;;;;;;;6.75;6.15;;;;;;;;;;5033966;28;20068;-70
2022/08/21 14:01:23;;;;;;;7.30;6.68;;;;;;;;;;5034273;28;20017;-70
2022/08/21 14:03:50;;;;;;;7.35;6.75;;;;;;;;;;5016254;28;20021;-70
2022/08/21 14:06:21;;;;;;;11.48;6.32;;;;;;;;;;5016042;28;20368;-70
2022/08/21 14:08:49;;;;;;;10.68;6.70;;;;;;;;;;5034151;28;20033;-70
2022/08/21 14:11:15;;;;;;;7.35;6.65;;;;;;;;;;5033820;28;20384;-70
2022/08/21 14:13:40;;;;;;;7.82;7.13;;;;;;;;;;5033652;28;20029;-70
2022/08/21 14:16:17;;;;;;;9.02;7.72;;;;;;;;;;5034249;28;20021;-70
2022/08/21 14:19:01;;;;;;;9.50;8.27;;;;;;;;;;5034141;28;20025;-70
2022/08/21 14:21:34;;;;;;;8.82;7.95;;;;;;;;;;5033685;28;20045;-70
2022/08/21 14:24:05;;;;;;;8.10;7.22;;;;;;;;;;5033905;28;20116;-70
2022/08/21 14:26:30;;;;;;;8.40;7.45;;;;;;;;;;5034190;28;20091;-70
2022/08/21 14:28:58;;;;;;;6.65;5.95;;;;;;;;;;5016297;28;20029;-70
2022/08/21 14:31:29;;;;;;;5.18;4.68;;;;;;;;;;5015739;28;20041;-70
2022/08/21 14:33:54;;;;;;;;;;;;;;;;;;5016743;28;20048;-70